Time;durP1;ratioP1;P1;durP2;ratioP2;P2;SDS_P1;SDS_P2;PMS_P1;PMS_P2;Temp;Humidity;BMP_temperature;BMP_pressure;BME280_temperature;BME280_humidity;BME280_pressure;Samples;Min_cycle;Max_cycle;Signal;HPM_P1;HPM_P2
2021/10/02 00:35:31;;;;;;;8.07;6.33;;;14.20;99.90;;;;;;5042587;28;20429;-84
2021/10/02 00:38:12;;;;;;;5.40;4.80;;;14.10;99.90;;;;;;5022513;28;20454;-83
2021/10/02 00:46:19;;;;;;;6.73;6.13;;;14.40;99.90;;;;;;5022445;28;20447;-84
2021/10/02 00:48:50;;;;;;;6.57;5.97;;;14.50;99.90;;;;;;5022118;28;20826;-84
2021/10/02 00:51:17;;;;;;;6.67;6.07;;;14.60;99.90;;;;;;5025235;28;20488;-84
2021/10/02 00:53:44;;;;;;;7.80;5.77;;;14.70;99.90;;;;;;5041868;28;20482;-84
2021/10/02 00:56:13;;;;;;;6.77;6.17;;;14.70;99.90;;;;;;5044825;28;20471;-80
2021/10/02 00:58:45;;;;;;;4.90;4.53;;;14.70;99.90;;;;;;5037764;28;20451;-81
2021/10/02 01:01:14;;;;;;;6.43;6.03;;;14.80;99.90;;;;;;5037468;28;20470;-81
2021/10/02 01:03:48;;;;;;;7.40;6.40;;;14.70;99.90;;;;;;5030830;28;20826;-84
2021/10/02 01:06:34;;;;;;;5.33;4.93;;;14.70;99.90;;;;;;5040080;28;20483;-84
2021/10/02 01:09:08;;;;;;;6.40;5.80;;;14.70;99.90;;;;;;5040959;28;21134;-84
2021/10/02 01:11:48;;;;;;;7.03;6.43;;;14.70;99.90;;;;;;5021648;28;20504;-84
2021/10/02 01:14:24;;;;;;;5.57;5.10;;;14.80;99.90;;;;;;5023216;28;20438;-84
2021/10/02 01:16:55;;;;;;;6.27;5.70;;;14.80;99.90;;;;;;5041170;28;20454;-83
2021/10/02 01:19:58;;;;;;;6.47;5.87;;;14.80;99.90;;;;;;5038940;28;20447;-84
2021/10/02 01:22:49;;;;;;;5.90;5.37;;;14.80;99.90;;;;;;5017512;28;20537;-84
2021/10/02 01:25:27;;;;;;;6.60;6.10;;;14.80;99.90;;;;;;5037197;28;20491;-84
2021/10/02 01:28:01;;;;;;;5.97;5.37;;;14.80;99.90;;;;;;5033816;28;20451;-84
2021/10/02 01:30:55;;;;;;;6.80;6.20;;;14.80;99.90;;;;;;5023206;28;20456;-84
2021/10/02 01:33:31;;;;;;;7.07;6.37;;;14.80;99.90;;;;;;5021601;28;20477;-83
2021/10/02 01:36:16;;;;;;;5.87;5.40;;;14.80;99.90;;;;;;5029190;28;20454;-84
2021/10/02 01:47:15;;;;;;;6.97;5.70;;;14.50;99.90;;;;;;5020865;28;20463;-82
2021/10/02 01:49:44;;;;;;;7.40;6.70;;;14.60;99.90;;;;;;5020270;28;20508;-82
2021/10/02 01:52:12;;;;;;;9.07;6.30;;;14.70;99.90;;;;;;5037743;28;20485;-84
2021/10/02 01:54:43;;;;;;;7.30;6.53;;;14.70;99.90;;;;;;5039945;28;20455;-84
2021/10/02 01:57:11;;;;;;;6.53;5.90;;;14.70;99.90;;;;;;5023180;28;20454;-84
2021/10/02 01:59:41;;;;;;;7.60;6.93;;;14.70;99.90;;;;;;5032339;28;20987;-84
2021/10/02 02:02:09;;;;;;;7.03;6.40;;;14.70;99.90;;;;;;5040412;28;20470;-84
2021/10/02 02:04:39;;;;;;;6.93;6.17;;;14.70;99.90;;;;;;5029556;28;20466;-84
2021/10/02 02:07:06;;;;;;;8.00;6.33;;;14.70;99.90;;;;;;5020247;28;20452;-84
2021/10/02 02:09:39;;;;;;;7.63;6.87;;;14.70;99.90;;;;;;5029846;28;20464;-84
2021/10/02 02:12:12;;;;;;;5.47;4.87;;;14.70;99.90;;;;;;5038427;28;20493;-84
2021/10/02 02:14:44;;;;;;;6.70;5.60;;;14.70;99.90;;;;;;5020896;28;20442;-84
2021/10/02 02:17:12;;;;;;;6.60;5.87;;;14.60;99.90;;;;;;5022153;28;20452;-84
2021/10/02 02:19:40;;;;;;;6.87;6.37;;;14.70;99.90;;;;;;5040115;28;20450;-82
2021/10/02 02:22:07;;;;;;;8.87;7.37;;;14.60;99.90;;;;;;5038733;28;20467;-83
2021/10/02 02:24:34;;;;;;;6.33;5.60;;;14.60;99.90;;;;;;5020446;28;20462;-84
2021/10/02 02:27:03;;;;;;;6.97;6.27;;;14.60;99.90;;;;;;5023237;28;20461;-84
2021/10/02 02:29:31;;;;;;;8.07;7.03;;;14.60;99.90;;;;;;5019957;28;20452;-84
2021/10/02 02:32:00;;;;;;;7.20;5.97;;;14.60;99.90;;;;;;5020144;28;20489;-84
2021/10/02 02:34:28;;;;;;;7.07;5.83;;;14.60;99.90;;;;;;5020190;28;20846;-82
2021/10/02 02:36:55;;;;;;;6.80;6.10;;;14.60;99.90;;;;;;5020903;28;20450;-84
2021/10/02 02:39:22;;;;;;;8.17;7.17;;;14.60;99.90;;;;;;5039236;28;20460;-83
2021/10/02 02:41:48;;;;;;;8.23;7.00;;;14.60;99.90;;;;;;5039162;28;20476;-84
2021/10/02 02:44:15;;;;;;;8.30;6.57;;;14.60;99.90;;;;;;5021570;28;20455;-82
2021/10/02 02:46:43;;;;;;;7.70;7.10;;;14.60;99.90;;;;;;5036375;28;20946;-84
2021/10/02 02:49:15;;;;;;;6.83;6.13;;;14.60;99.90;;;;;;5040069;28;20474;-84
2021/10/02 02:51:51;;;;;;;7.00;6.40;;;14.60;99.90;;;;;;5039707;28;20493;-84
2021/10/02 02:54:26;;;;;;;8.10;7.43;;;14.60;99.90;;;;;;5020312;28;20454;-84
2021/10/02 02:56:56;;;;;;;6.57;5.87;;;14.60;99.90;;;;;;5036472;28;21004;-84
2021/10/02 02:59:30;;;;;;;7.03;6.33;;;14.60;99.90;;;;;;5040084;28;20799;-84
2021/10/02 03:01:58;;;;;;;7.13;6.50;;;14.60;99.90;;;;;;5023208;28;20474;-83
2021/10/02 03:04:30;;;;;;;9.07;6.90;;;14.60;99.90;;;;;;5019993;28;20450;-84
2021/10/02 03:06:59;;;;;;;8.60;7.83;;;14.60;99.90;;;;;;5036842;28;20458;-84
2021/10/02 03:09:27;;;;;;;6.63;6.03;;;14.60;99.90;;;;;;5044114;28;20457;-84
2021/10/02 03:11:56;;;;;;;5.73;5.23;;;14.60;99.90;;;;;;5027710;28;20497;-83
2021/10/02 03:14:23;;;;;;;6.77;6.10;;;14.60;99.90;;;;;;5023385;28;20481;-84
2021/10/02 03:16:53;;;;;;;7.37;6.67;;;14.50;99.90;;;;;;5022314;28;20450;-84
2021/10/02 03:19:21;;;;;;;7.23;6.03;;;14.50;99.90;;;;;;5023342;28;20461;-84
2021/10/02 03:21:51;;;;;;;6.87;6.20;;;14.50;99.90;;;;;;5036515;28;20474;-83
2021/10/02 03:24:20;;;;;;;7.27;6.60;;;14.50;99.90;;;;;;5033300;28;20470;-84
2021/10/02 03:26:48;;;;;;;6.73;6.13;;;14.50;99.90;;;;;;5023302;28;20833;-84
2021/10/02 03:29:15;;;;;;;6.87;5.63;;;14.50;99.90;;;;;;5023715;28;20461;-83
2021/10/02 03:31:42;;;;;;;7.83;6.00;;;14.50;99.90;;;;;;5023292;28;20509;-84
2021/10/02 03:34:10;;;;;;;6.27;5.73;;;14.50;99.90;;;;;;5029589;28;20461;-83
2021/10/02 03:36:37;;;;;;;7.53;6.83;;;14.50;99.90;;;;;;5042248;28;20451;-83
2021/10/02 03:39:05;;;;;;;7.00;6.30;;;14.50;99.90;;;;;;5036933;28;20970;-84
2021/10/02 03:41:32;;;;;;;7.60;6.30;;;14.50;99.90;;;;;;5023065;28;20951;-84
2021/10/02 03:43:58;;;;;;;7.70;5.73;;;14.50;99.90;;;;;;5022845;28;20455;-82
2021/10/02 03:46:25;;;;;;;8.10;6.60;;;14.50;99.90;;;;;;5022808;28;20460;-84
2021/10/02 03:48:52;;;;;;;6.93;6.20;;;14.50;99.90;;;;;;5026066;28;20453;-84
2021/10/02 03:51:19;;;;;;;6.77;6.17;;;14.40;99.90;;;;;;5042926;28;20576;-82
2021/10/02 03:53:46;;;;;;;7.27;6.57;;;14.50;99.90;;;;;;5023490;28;20480;-84
2021/10/02 03:56:14;;;;;;;6.50;6.00;;;14.40;99.90;;;;;;5023026;28;20459;-84
2021/10/02 03:58:41;;;;;;;6.93;6.30;;;14.40;99.90;;;;;;5040003;28;20450;-84
2021/10/02 04:01:07;;;;;;;6.07;5.27;;;14.40;99.90;;;;;;5042366;28;20449;-83
2021/10/02 04:03:34;;;;;;;6.37;5.90;;;14.40;99.90;;;;;;5026143;28;20474;-84
2021/10/02 04:06:01;;;;;;;9.00;6.90;;;14.40;99.90;;;;;;5022287;28;20461;-83
2021/10/02 04:08:28;;;;;;;7.93;6.97;;;14.40;99.90;;;;;;5037528;28;20449;-84
2021/10/02 04:10:54;;;;;;;7.63;6.93;;;14.30;99.90;;;;;;5042618;28;20445;-84
2021/10/02 04:13:22;;;;;;;11.00;7.33;;;14.40;99.90;;;;;;5041880;28;20492;-84
2021/10/02 04:15:49;;;;;;;7.80;6.60;;;14.40;99.90;;;;;;5042012;28;20459;-84
2021/10/02 04:18:16;;;;;;;7.60;6.53;;;14.30;99.90;;;;;;5028870;28;20461;-84
2021/10/02 04:20:43;;;;;;;8.80;6.73;;;14.30;99.90;;;;;;5029912;28;20456;-84
2021/10/02 04:23:10;;;;;;;12.57;7.43;;;14.30;99.90;;;;;;5042454;28;20465;-83
2021/10/02 04:25:36;;;;;;;8.37;7.60;;;14.30;99.90;;;;;;5035408;28;20990;-84
2021/10/02 04:28:04;;;;;;;6.73;6.23;;;14.30;99.90;;;;;;5022514;28;20465;-83
2021/10/02 04:30:32;;;;;;;8.13;7.30;;;14.30;99.90;;;;;;5021926;28;20986;-84
2021/10/02 04:32:58;;;;;;;8.33;7.10;;;14.20;99.90;;;;;;5021869;28;20494;-84
2021/10/02 04:35:25;;;;;;;12.73;7.37;;;14.20;99.90;;;;;;5022471;28;20461;-84
2021/10/02 04:37:52;;;;;;;11.27;8.70;;;14.20;99.90;;;;;;5022284;28;20454;-83
2021/10/02 04:40:19;;;;;;;8.47;7.70;;;14.20;99.90;;;;;;5037445;28;20457;-84
2021/10/02 04:42:46;;;;;;;9.67;7.60;;;14.20;99.90;;;;;;5041492;28;20465;-83
2021/10/02 04:45:17;;;;;;;6.77;6.00;;;14.10;99.90;;;;;;5026936;28;20458;-83
2021/10/02 04:47:45;;;;;;;6.87;6.17;;;14.00;99.90;;;;;;5022296;28;20458;-83
2021/10/02 04:50:12;;;;;;;7.03;6.43;;;14.00;99.90;;;;;;5039124;28;20818;-83
2021/10/02 04:52:39;;;;;;;8.70;8.00;;;14.00;99.90;;;;;;5041559;28;20500;-84
2021/10/02 04:55:08;;;;;;;8.00;7.30;;;14.00;99.90;;;;;;5024899;28;20834;-82
2021/10/02 04:57:34;;;;;;;8.07;6.73;;;14.00;99.90;;;;;;5021534;28;20460;-83
2021/10/02 05:00:01;;;;;;;8.60;7.73;;;14.00;99.90;;;;;;5035818;28;20455;-83
2021/10/02 05:02:28;;;;;;;9.87;8.20;;;14.00;99.90;;;;;;5041019;28;20987;-84
2021/10/02 05:04:56;;;;;;;7.60;6.87;;;13.90;99.90;;;;;;5026876;28;20449;-83
2021/10/02 05:07:23;;;;;;;9.20;7.17;;;14.00;99.90;;;;;;5020871;28;20796;-84
2021/10/02 05:09:50;;;;;;;7.93;7.23;;;14.00;99.90;;;;;;5032724;28;20460;-84
2021/10/02 05:12:17;;;;;;;8.60;7.80;;;14.00;99.90;;;;;;5040985;28;20485;-83
2021/10/02 05:14:43;;;;;;;7.90;7.17;;;14.00;99.90;;;;;;5040362;28;20459;-84
2021/10/02 05:17:11;;;;;;;8.80;8.10;;;14.00;99.90;;;;;;5033558;28;20948;-84
2021/10/02 05:19:39;;;;;;;9.43;7.33;;;13.90;99.90;;;;;;5020528;28;20454;-84
2021/10/02 05:22:07;;;;;;;7.37;6.70;;;13.90;99.90;;;;;;5025997;28;20476;-83
2021/10/02 05:24:37;;;;;;;7.33;6.43;;;14.00;99.90;;;;;;5040717;28;20461;-83
2021/10/02 05:27:06;;;;;;;8.63;7.70;;;13.90;99.90;;;;;;5035853;28;20458;-83
2021/10/02 05:29:34;;;;;;;11.30;7.90;;;13.90;99.90;;;;;;5020514;28;20453;-83
2021/10/02 05:32:01;;;;;;;10.13;9.33;;;13.90;99.90;;;;;;5023496;28;20480;-84
2021/10/02 05:34:28;;;;;;;9.20;8.20;;;13.90;99.90;;;;;;5040223;28;20453;-83
2021/10/02 05:36:54;;;;;;;10.20;7.20;;;13.90;99.90;;;;;;5039322;28;20457;-84
2021/10/02 05:39:22;;;;;;;7.90;7.10;;;13.90;99.90;;;;;;5041045;28;20842;-82
2021/10/02 05:41:50;;;;;;;8.30;7.60;;;13.90;99.90;;;;;;5039419;28;20978;-82
2021/10/02 05:44:17;;;;;;;8.93;8.07;;;13.90;99.90;;;;;;5022013;28;20453;-83
2021/10/02 05:46:43;;;;;;;8.00;7.20;;;13.90;99.90;;;;;;5040873;28;20461;-83
2021/10/02 05:49:10;;;;;;;8.87;7.97;;;13.90;99.90;;;;;;5041390;28;20460;-84
2021/10/02 05:51:37;;;;;;;8.73;6.70;;;13.90;99.90;;;;;;5022401;28;20457;-84
2021/10/02 05:54:04;;;;;;;7.30;6.60;;;14.00;99.90;;;;;;5021334;28;20455;-84
2021/10/02 05:56:32;;;;;;;9.80;8.03;;;14.00;99.90;;;;;;5038451;28;20456;-84
2021/10/02 05:58:59;;;;;;;7.77;6.97;;;14.10;99.90;;;;;;5041105;28;20462;-84
2021/10/02 06:01:25;;;;;;;7.63;6.93;;;14.10;99.90;;;;;;5024869;28;20463;-84
2021/10/02 06:03:52;;;;;;;8.03;6.70;;;14.20;99.90;;;;;;5022949;28;20457;-81
2021/10/02 06:06:19;;;;;;;9.13;8.23;;;14.20;99.90;;;;;;5050049;28;20531;-81
2021/10/02 06:08:46;;;;;;;7.90;7.10;;;14.20;99.90;;;;;;5055264;28;20452;-80
2021/10/02 06:11:12;;;;;;;8.07;7.00;;;14.20;99.90;;;;;;5041357;28;20442;-83
2021/10/02 06:13:41;;;;;;;9.00;8.10;;;14.30;99.90;;;;;;5022509;28;20490;-84
2021/10/02 06:16:08;;;;;;;9.20;8.07;;;14.30;99.90;;;;;;5032744;28;20458;-84
2021/10/02 06:18:34;;;;;;;10.00;9.10;;;14.30;99.90;;;;;;5041442;28;20465;-83
2021/10/02 06:21:01;;;;;;;11.53;8.37;;;14.30;99.90;;;;;;5030435;28;20856;-84
2021/10/02 06:23:28;;;;;;;8.70;7.97;;;14.20;99.90;;;;;;5017301;28;20463;-82
2021/10/02 06:25:55;;;;;;;9.40;8.03;;;14.20;99.90;;;;;;5024501;28;20456;-83
2021/10/02 06:28:22;;;;;;;9.33;8.10;;;14.20;99.90;;;;;;5034828;28;20462;-83
2021/10/02 06:30:50;;;;;;;8.53;7.73;;;14.20;99.90;;;;;;5026463;28;20454;-83
2021/10/02 06:33:17;;;;;;;9.63;8.50;;;14.30;99.90;;;;;;5015143;28;20868;-82
2021/10/02 06:35:44;;;;;;;9.07;6.90;;;14.30;99.90;;;;;;5014670;28;20457;-82
2021/10/02 06:38:11;;;;;;;8.43;7.20;;;14.30;99.90;;;;;;5014960;28;20461;-83
2021/10/02 06:40:40;;;;;;;8.47;7.60;;;14.30;99.90;;;;;;5015238;28;20817;-83
2021/10/02 06:43:07;;;;;;;9.20;8.13;;;14.30;99.90;;;;;;5015316;28;20469;-82
2021/10/02 06:45:34;;;;;;;12.70;8.07;;;14.40;99.90;;;;;;5034330;28;20453;-82
2021/10/02 06:48:02;;;;;;;8.63;7.83;;;14.40;99.90;;;;;;5034764;28;20455;-83
2021/10/02 06:50:28;;;;;;;10.13;7.67;;;14.40;99.90;;;;;;5031027;28;20459;-82
2021/10/02 06:52:55;;;;;;;10.90;8.63;;;14.50;99.90;;;;;;5015202;28;20502;-82
2021/10/02 06:55:22;;;;;;;7.40;6.77;;;14.60;99.90;;;;;;5014769;28;20447;-83
2021/10/02 06:57:49;;;;;;;10.10;7.40;;;14.50;99.90;;;;;;5032772;28;20446;-82
2021/10/02 07:00:16;;;;;;;8.50;7.80;;;14.60;99.90;;;;;;5034876;28;20460;-83
2021/10/02 07:02:44;;;;;;;7.27;6.57;;;14.60;99.90;;;;;;5018807;28;20474;-84
2021/10/02 07:05:13;;;;;;;10.73;9.63;;;14.70;99.90;;;;;;5025405;28;20789;-84
2021/10/02 07:07:40;;;;;;;10.50;9.60;;;14.70;99.90;;;;;;5040325;28;20445;-84
2021/10/02 07:10:26;;;;;;;8.77;7.87;;;14.70;99.90;;;;;;5036186;28;20845;-84
2021/10/02 07:12:54;;;;;;;9.07;8.30;;;14.60;99.90;;;;;;5021440;28;20493;-84
2021/10/02 07:15:21;;;;;;;7.67;7.00;;;14.70;99.90;;;;;;5026435;28;20460;-84
2021/10/02 07:17:48;;;;;;;8.03;7.20;;;14.80;99.90;;;;;;5041165;28;20457;-84
2021/10/02 07:20:17;;;;;;;8.13;6.93;;;14.90;99.90;;;;;;5036997;28;20573;-84
2021/10/02 07:22:44;;;;;;;8.13;7.03;;;15.00;99.90;;;;;;5020513;28;20479;-84
2021/10/02 07:25:14;;;;;;;9.07;7.43;;;15.10;99.90;;;;;;5027836;28;20465;-84
2021/10/02 07:27:42;;;;;;;7.33;6.73;;;15.10;99.90;;;;;;5020843;28;20828;-84
2021/10/02 07:30:13;;;;;;;7.77;6.97;;;15.20;99.90;;;;;;5037963;28;20465;-84
2021/10/02 07:32:41;;;;;;;8.53;7.73;;;15.10;99.90;;;;;;5040183;28;20515;-84
2021/10/02 07:35:10;;;;;;;7.70;7.07;;;15.20;99.90;;;;;;5022400;28;20462;-84
2021/10/02 07:37:38;;;;;;;7.43;6.73;;;15.20;99.90;;;;;;5020538;28;20944;-84
2021/10/02 07:40:08;;;;;;;8.80;8.10;;;15.00;99.90;;;;;;5037865;28;20848;-84
2021/10/02 07:42:37;;;;;;;6.80;6.30;;;15.00;99.90;;;;;;5041115;28;20466;-84
2021/10/02 07:45:06;;;;;;;5.67;5.20;;;15.10;99.90;;;;;;5024570;28;20465;-84
2021/10/02 07:47:34;;;;;;;7.00;6.40;;;14.90;99.90;;;;;;5021541;28;20455;-82
2021/10/02 07:50:02;;;;;;;6.97;6.37;;;14.90;99.90;;;;;;5036492;28;20460;-84
2021/10/02 07:52:30;;;;;;;7.43;6.07;;;14.80;99.90;;;;;;5041207;28;20473;-84
2021/10/02 07:54:59;;;;;;;6.63;6.03;;;15.00;99.90;;;;;;5029495;28;20463;-83
2021/10/02 07:57:26;;;;;;;9.43;7.50;;;15.00;99.90;;;;;;5024850;28;20467;-84
2021/10/02 07:59:53;;;;;;;6.10;5.50;;;15.00;99.90;;;;;;5037523;28;20496;-84
2021/10/02 08:02:20;;;;;;;5.97;5.43;;;15.00;99.90;;;;;;5043773;28;20470;-84
2021/10/02 08:04:48;;;;;;;6.40;5.63;;;15.20;99.90;;;;;;5042125;28;20453;-84
2021/10/02 08:07:16;;;;;;;5.60;4.97;;;15.30;99.90;;;;;;5039133;28;20778;-82
2021/10/02 08:09:43;;;;;;;5.00;4.60;;;15.30;99.90;;;;;;5036998;28;20459;-82
2021/10/02 08:12:12;;;;;;;5.60;4.67;;;15.40;99.90;;;;;;5026583;28;20474;-83
2021/10/02 08:14:39;;;;;;;4.13;3.73;;;15.50;99.90;;;;;;5016685;28;20490;-82
2021/10/02 08:17:07;;;;;;;3.97;3.50;;;15.70;99.90;;;;;;5017260;28;20443;-80
2021/10/02 08:19:35;;;;;;;3.10;2.90;;;15.80;99.90;;;;;;5031787;28;20478;-80
2021/10/02 08:22:04;;;;;;;4.37;3.97;;;15.90;99.90;;;;;;5018752;28;20466;-80
2021/10/02 08:24:32;;;;;;;9.73;3.87;;;16.10;99.90;;;;;;5032091;28;20476;-80
2021/10/02 08:27:00;;;;;;;5.87;3.63;;;16.30;99.90;;;;;;5038196;28;20556;-81
2021/10/02 08:29:30;;;;;;;3.00;2.50;;;16.40;99.90;;;;;;5024248;28;20456;-80
2021/10/02 08:31:57;;;;;;;2.87;2.53;;;16.50;99.90;;;;;;5026060;28;20561;-80
2021/10/02 08:34:24;;;;;;;3.43;2.63;;;16.50;99.90;;;;;;5036131;28;20476;-80
2021/10/02 08:36:51;;;;;;;3.37;2.90;;;16.70;99.90;;;;;;5025591;28;20459;-79
2021/10/02 08:39:18;;;;;;;3.07;2.83;;;16.70;98.70;;;;;;5038567;28;20443;-80
2021/10/02 08:41:45;;;;;;;2.47;2.13;;;17.00;98.70;;;;;;5036646;28;20990;-79
2021/10/02 08:44:16;;;;;;;2.90;2.70;;;17.00;96.90;;;;;;5036871;28;20487;-80
2021/10/02 08:46:46;;;;;;;2.60;2.37;;;17.10;97.10;;;;;;5025982;28;20890;-79
2021/10/02 08:49:42;;;;;;;2.57;2.37;;;17.20;96.20;;;;;;5036679;28;20495;-79
2021/10/02 08:52:10;;;;;;;2.63;2.43;;;17.30;95.80;;;;;;5031535;28;20468;-80
2021/10/02 08:54:39;;;;;;;2.63;2.43;;;17.40;95.80;;;;;;5035575;28;20992;-80
2021/10/02 08:57:38;;;;;;;2.00;1.90;;;17.50;96.10;;;;;;5021668;28;20453;-81
2021/10/02 09:00:10;;;;;;;3.03;2.73;;;17.60;95.70;;;;;;5017975;28;20453;-81
2021/10/02 09:02:38;;;;;;;2.20;2.00;;;17.70;95.10;;;;;;5029224;28;20549;-80
2021/10/02 09:05:08;;;;;;;2.03;1.83;;;17.80;94.90;;;;;;5039005;28;20470;-81
2021/10/02 09:07:35;;;;;;;4.30;2.17;;;17.90;94.30;;;;;;5030287;28;20464;-81
2021/10/02 09:10:03;;;;;;;2.90;2.70;;;18.10;94.00;;;;;;5037247;28;20463;-81
2021/10/02 09:12:32;;;;;;;2.50;1.83;;;18.00;94.10;;;;;;5022687;28;20476;-81
2021/10/02 09:15:02;;;;;;;3.47;3.17;;;18.20;94.20;;;;;;5035986;28;21051;-80
2021/10/02 09:17:29;;;;;;;3.30;2.30;;;18.30;92.60;;;;;;5034689;28;20457;-81
2021/10/02 09:19:58;;;;;;;2.30;2.10;;;18.30;91.80;;;;;;5019067;28;20484;-81
2021/10/02 09:22:25;;;;;;;6.10;2.83;;;18.40;92.00;;;;;;5021667;28;20517;-81
2021/10/02 09:24:55;;;;;;;2.30;2.10;;;18.50;92.20;;;;;;5039341;28;20471;-82
2021/10/02 09:27:26;;;;;;;2.63;2.43;;;18.50;91.80;;;;;;5038636;28;20459;-82
2021/10/02 09:29:56;;;;;;;2.60;2.40;;;18.60;91.80;;;;;;5036450;28;20456;-81
2021/10/02 09:32:28;;;;;;;3.37;2.80;;;18.60;92.00;;;;;;5038241;28;21008;-80
2021/10/02 09:34:58;;;;;;;3.63;2.97;;;18.60;92.40;;;;;;5035757;28;20498;-80
2021/10/02 09:37:27;;;;;;;3.67;2.63;;;18.70;93.20;;;;;;5037751;28;20453;-80
2021/10/02 09:39:58;;;;;;;3.13;2.70;;;19.00;92.60;;;;;;5038746;28;20456;-81
2021/10/02 09:42:29;;;;;;;3.00;2.80;;;19.00;91.90;;;;;;5037350;28;20827;-81
2021/10/02 09:45:02;;;;;;;3.30;3.00;;;19.10;92.50;;;;;;5037000;28;20448;-83
2021/10/02 09:47:29;;;;;;;4.53;2.73;;;19.30;92.80;;;;;;5036640;28;20450;-83
2021/10/02 09:49:56;;;;;;;3.40;3.13;;;19.30;92.10;;;;;;5036632;28;20970;-83
2021/10/02 09:52:33;;;;;;;3.57;3.27;;;19.40;92.50;;;;;;5036720;28;20526;-83
2021/10/02 09:55:01;;;;;;;3.77;2.70;;;19.30;92.50;;;;;;5036790;28;20487;-83
2021/10/02 09:57:28;;;;;;;3.10;2.90;;;19.40;92.80;;;;;;5036394;28;20453;-83
2021/10/02 10:00:11;;;;;;;3.60;3.30;;;19.50;92.40;;;;;;5036957;28;20449;-83
2021/10/02 10:02:39;;;;;;;3.93;3.63;;;19.50;92.20;;;;;;5036569;28;20498;-82
2021/10/02 10:05:08;;;;;;;3.23;2.97;;;19.60;91.90;;;;;;5036001;28;20445;-83
2021/10/02 10:07:36;;;;;;;2.97;2.77;;;19.60;92.30;;;;;;5036356;28;20463;-83
2021/10/02 10:10:06;;;;;;;2.73;2.50;;;19.80;92.10;;;;;;5036867;28;20537;-83
2021/10/02 10:12:34;;;;;;;3.70;3.40;;;20.00;92.10;;;;;;5036430;28;20820;-83
2021/10/02 10:15:01;;;;;;;3.23;3.03;;;20.10;91.60;;;;;;5036257;28;20491;-84
2021/10/02 10:17:31;;;;;;;3.97;3.57;;;20.10;92.10;;;;;;5035778;28;20475;-83
2021/10/02 10:20:09;;;;;;;3.73;2.90;;;20.30;91.80;;;;;;5036077;28;20461;-84
2021/10/02 10:22:37;;;;;;;4.00;3.70;;;20.60;91.90;;;;;;5036421;28;20469;-83
2021/10/02 10:25:06;;;;;;;3.33;3.03;;;20.50;91.50;;;;;;5035943;28;20458;-84
2021/10/02 10:27:36;;;;;;;4.30;3.67;;;20.60;91.40;;;;;;5035940;28;20453;-83
2021/10/02 10:30:10;;;;;;;3.97;3.67;;;20.60;91.20;;;;;;5035930;28;20977;-83
2021/10/02 10:32:37;;;;;;;3.50;3.20;;;20.70;91.20;;;;;;5035875;28;20839;-82
2021/10/02 10:35:06;;;;;;;3.27;3.07;;;20.80;91.20;;;;;;5035678;28;20489;-83
2021/10/02 10:37:33;;;;;;;3.73;3.43;;;20.80;90.60;;;;;;5035935;28;20449;-83
2021/10/02 10:40:02;;;;;;;4.93;3.63;;;20.90;90.40;;;;;;5036634;28;20456;-83
2021/10/02 10:42:30;;;;;;;5.20;3.80;;;21.00;90.90;;;;;;5035309;28;20478;-82
2021/10/02 10:44:58;;;;;;;4.07;3.77;;;21.20;91.10;;;;;;5036276;28;20548;-83
2021/10/02 10:47:25;;;;;;;4.40;4.10;;;21.40;91.00;;;;;;5035758;28;20457;-84
2021/10/02 10:49:52;;;;;;;4.87;3.77;;;21.70;90.80;;;;;;5035570;28;20454;-84
2021/10/02 10:52:20;;;;;;;3.67;3.37;;;22.10;90.60;;;;;;5035734;28;21023;-83
2021/10/02 10:54:50;;;;;;;4.00;3.60;;;22.60;89.60;;;;;;5035757;28;20489;-84
2021/10/02 10:57:35;;;;;;;4.70;4.30;;;22.60;86.40;;;;;;5035248;28;20456;-84
2021/10/02 11:00:03;;;;;;;4.37;3.63;;;22.90;87.10;;;;;;5035401;28;20451;-83
2021/10/02 11:02:45;;;;;;;5.17;4.00;;;23.20;86.70;;;;;;5035096;28;20480;-84
2021/10/02 11:05:47;;;;;;;5.60;3.80;;;23.40;84.70;;;;;;5035409;28;20452;-84
2021/10/02 11:08:16;;;;;;;4.07;3.40;;;23.20;84.20;;;;;;5035479;28;20456;-84
2021/10/02 11:10:48;;;;;;;3.43;3.17;;;23.50;84.30;;;;;;5035107;28;20448;-84
2021/10/02 11:13:18;;;;;;;5.20;3.23;;;23.80;83.40;;;;;;5035114;28;20969;-84
2021/10/02 11:15:46;;;;;;;3.87;3.57;;;24.10;83.30;;;;;;5044453;28;20453;-83
2021/10/02 11:18:42;;;;;;;5.07;4.50;;;24.80;83.40;;;;;;5049250;28;20508;-81
2021/10/02 11:21:10;;;;;;;3.47;3.17;;;25.10;80.70;;;;;;5048181;28;20448;-82
2021/10/02 11:24:07;;;;;;;3.80;3.47;;;25.70;79.50;;;;;;5037848;28;20474;-84
2021/10/02 11:26:47;;;;;;;4.20;3.90;;;26.10;77.30;;;;;;5034803;28;20462;-83
2021/10/02 11:29:36;;;;;;;4.53;4.13;;;26.20;75.50;;;;;;5038095;28;20450;-84
2021/10/02 11:32:29;;;;;;;6.87;4.23;;;26.00;76.10;;;;;;5038557;28;20478;-84
2021/10/02 11:35:22;;;;;;;5.07;4.07;;;26.30;75.20;;;;;;5020091;28;20520;-84
2021/10/02 11:37:53;;;;;;;4.03;3.53;;;26.50;75.00;;;;;;5038535;28;20550;-84
2021/10/02 11:40:49;;;;;;;3.73;3.43;;;26.60;74.10;;;;;;5038265;28;20462;-84
2021/10/02 11:43:30;;;;;;;3.97;3.67;;;26.70;74.20;;;;;;5038020;28;20478;-84
2021/10/02 11:46:01;;;;;;;3.00;2.80;;;26.90;72.10;;;;;;5038045;28;20572;-84
2021/10/02 11:48:40;;;;;;;3.07;2.87;;;26.80;71.30;;;;;;5023418;28;20463;-84
2021/10/02 11:51:29;;;;;;;3.37;3.07;;;26.30;69.40;;;;;;5036771;28;20456;-84
2021/10/02 11:54:14;;;;;;;3.63;3.33;;;26.40;69.60;;;;;;5028352;28;20520;-84
2021/10/02 11:56:43;;;;;;;3.60;3.30;;;26.90;71.80;;;;;;5024505;28;20453;-84
2021/10/02 11:59:10;;;;;;;3.67;3.37;;;27.40;72.00;;;;;;5032140;28;20457;-85
2021/10/02 12:01:43;;;;;;;3.40;3.20;;;27.90;67.90;;;;;;5017049;28;20453;-84
2021/10/02 12:04:13;;;;;;;3.53;3.30;;;27.80;65.00;;;;;;5029309;28;20448;-84
2021/10/02 12:06:42;;;;;;;3.40;3.20;;;27.50;66.60;;;;;;5036116;28;20814;-85
2021/10/02 12:13:24;;;;;;;3.37;2.83;;;28.40;64.60;;;;;;5007511;28;20455;-85
2021/10/02 12:19:08;;;;;;;3.87;3.57;;;28.20;61.60;;;;;;4934416;28;20448;-86
2021/10/02 12:21:45;;;;;;;3.50;3.20;;;27.80;62.40;;;;;;4998673;28;20457;-86
2021/10/02 12:24:41;;;;;;;3.10;2.90;;;28.30;65.80;;;;;;5015268;28;20491;-85
2021/10/02 12:27:10;;;;;;;3.43;3.13;;;28.50;60.10;;;;;;5010036;28;20462;-84
2021/10/02 12:29:40;;;;;;;4.10;3.70;;;28.80;59.80;;;;;;5003522;28;20897;-83
2021/10/02 12:32:08;;;;;;;3.20;3.00;;;28.70;60.30;;;;;;4997063;28;20477;-83
2021/10/02 12:34:39;;;;;;;3.57;3.27;;;28.40;59.50;;;;;;5009813;28;20446;-83
2021/10/02 12:37:10;;;;;;;3.50;3.20;;;28.50;61.00;;;;;;5008892;28;20459;-84
2021/10/02 12:39:48;;;;;;;3.43;3.13;;;27.70;59.50;;;;;;4996137;28;20546;-83
2021/10/02 12:42:39;;;;;;;4.07;3.77;;;27.20;61.20;;;;;;5010776;28;20478;-83
2021/10/02 12:45:16;;;;;;;3.27;2.80;;;26.60;62.80;;;;;;4997227;28;20986;-83
2021/10/02 12:48:01;;;;;;;4.47;3.50;;;26.20;65.00;;;;;;5004706;28;20459;-83
2021/10/02 12:50:35;;;;;;;4.00;3.70;;;25.50;65.40;;;;;;5016203;28;20467;-83
2021/10/02 12:53:04;;;;;;;2.90;2.63;;;24.80;66.70;;;;;;5005136;28;20479;-83
2021/10/02 12:55:31;;;;;;;3.80;3.50;;;24.80;67.70;;;;;;5023441;28;20459;-84
2021/10/02 12:58:02;;;;;;;3.40;3.10;;;25.00;69.00;;;;;;5004511;28;20481;-84
2021/10/02 13:00:31;;;;;;;3.23;2.93;;;25.20;68.90;;;;;;4997066;28;20537;-84
2021/10/02 13:03:00;;;;;;;2.93;2.67;;;25.40;67.40;;;;;;5005003;28;20544;-83
2021/10/02 13:05:29;;;;;;;3.33;3.03;;;25.70;66.60;;;;;;5012093;28;20488;-83
2021/10/02 13:07:58;;;;;;;3.20;3.00;;;25.70;65.70;;;;;;4998310;28;20453;-84
2021/10/02 13:10:37;;;;;;;3.47;3.27;;;26.00;66.90;;;;;;4998433;28;20467;-82
2021/10/02 13:13:06;;;;;;;3.60;3.30;;;26.30;65.50;;;;;;5016127;28;20548;-83
2021/10/02 13:15:34;;;;;;;2.77;2.57;;;26.90;64.60;;;;;;5012816;28;20807;-83
2021/10/02 13:18:04;;;;;;;3.70;2.90;;;27.40;62.60;;;;;;5001657;28;20526;-85
2021/10/02 13:20:34;;;;;;;3.43;3.13;;;27.70;62.00;;;;;;5004464;28;20454;-85
2021/10/02 13:23:08;;;;;;;3.47;3.27;;;28.00;59.70;;;;;;5020799;28;20478;-85
2021/10/02 13:25:39;;;;;;;4.90;4.40;;;28.30;60.60;;;;;;5018164;28;20486;-84
2021/10/02 13:28:06;;;;;;;3.50;3.20;;;28.40;59.00;;;;;;5003154;28;20456;-86
2021/10/02 13:30:35;;;;;;;3.30;3.00;;;28.00;58.20;;;;;;4999762;28;20463;-85
2021/10/02 13:33:05;;;;;;;4.20;3.80;;;28.00;60.00;;;;;;4999950;28;20479;-85
2021/10/02 13:35:42;;;;;;;3.07;2.87;;;27.50;59.10;;;;;;4997707;28;20946;-84
2021/10/02 13:38:18;;;;;;;3.33;3.03;;;27.60;60.00;;;;;;4996136;28;20466;-85
2021/10/02 13:44:32;;;;;;;2.90;2.70;;;27.70;60.30;;;;;;5011803;28;20487;-84
2021/10/02 13:47:01;;;;;;;3.30;3.10;;;27.70;59.60;;;;;;4996290;28;20454;-86
2021/10/02 13:49:42;;;;;;;3.33;3.10;;;27.40;60.50;;;;;;5003590;28;20455;-86
2021/10/02 13:52:13;;;;;;;3.57;3.27;;;27.10;60.60;;;;;;5002417;28;21012;-86
2021/10/02 13:54:52;;;;;;;3.07;2.83;;;26.70;60.20;;;;;;5002489;28;20460;-85
2021/10/02 13:57:38;;;;;;;3.73;3.43;;;26.60;59.90;;;;;;5000582;28;20466;-86
2021/10/02 14:00:12;;;;;;;2.97;2.60;;;26.60;61.80;;;;;;5000239;28;20560;-86
2021/10/02 14:05:41;;;;;;;3.40;3.10;;;26.50;62.20;;;;;;5004113;28;20549;-85